Hovedside
METAR-TAF:

METAR-TAF

Lufthavner :

Tegucigalpa, Honduras

breddegrad: 14-03N, lengdegrad: 087-13W, høyde over havet: 994 m

Gjeldene værobservasjon

Denne rapporten ble laget for 45 minutter siden, klokken 10:00 UTC
Vind 12 kt fra Nord
Temperatur 19°C
Luftfuktighet 83%
Trykk 1019 hPa
Sikt 10 km eller mer
Spredte skyer i en høyde av 2600 ft

METAR: MHTG 201000Z 36012KT 9999 SCT026 19/16 Q1019 A3009 NOSIG

Tid: 04:45 (10:45 UTC)

Varsel

Denne rapporten ble laget for 6 timer og 20 minutter siden, klokken 04:25 UTC
Varsel gyldig fra 20. klokken 06 UTC til 21. klokken 06 UTC
Vind 5 kt fra Nord
Sikt 10 km eller mer
Få skyer i en høyde av 2600 ft
Blir
fra 20. klokken 16 UTC til 20. klokken 18 UTC
Vind 12 kt fra Øst-nordøst
Få skyer i en høyde av 3200 ft
Blir
fra 21. klokken 03 UTC til 21. klokken 05 UTC
Vind 7 kt fra Nord
Spredte skyer i en høyde av 2800 ft

TAF: MHTG 200425Z 2006/2106 36005KT 9999 FEW026 TX29/2021Z TN17/2012Z BECMG 2016/2018 06012KT FEW032 BECMG 2103/2105 36007KT SCT028

Værobservasjoner og værvarsel for over 4000 flyplasser (METAR- og TAF-rapporter).

Tilgjengelige stasjoner er representert av de røde og gule prikkene på kartet.

Hold musepekeren over prikken for å se navnet på stasjonen.

Klikk så for å se værobservasjoner og -varsler.

For å forandre kartet kan du klikke på den grønne knappen med svart kryss for å zoome inn, på den grønne knappen med strek for å zoome ut, eller på de grønne pilene for å se tilstøtende kart.


METAR-TAF: